Terminal Aerodrome Forecast
Issued by NWS

Home | Current Version | Previous Version | Graphics & Text | Print | Product List | Glossary On
Versions: 1 2 3 4 5 6 7 8 9 10 11 12 13 14 15 16 17 18
000
FTUS43 KTOP 141100
TAFFOE
TAF
KFOE 141126Z 1412/1512 34018G28KT 4SM -SN OVC015
     FM141400 34017G26KT P6SM SCT035 OVC100
     FM150100 VRB02KT P6SM SCT050=

USA.gov is the U.S. government's official web portal to all federal, state and local government web resources and services.